sensor_id;sensor_type;location;lat;lon;timestamp;temperature;humidity
70366;DHT22;57787;48.216;12.396;2023-07-30T00:02:25;17.80;88.20
70366;DHT22;57787;48.216;12.396;2023-07-30T00:04:51;17.90;88.10
70366;DHT22;57787;48.216;12.396;2023-07-30T00:07:20;17.90;88.00
70366;DHT22;57787;48.216;12.396;2023-07-30T00:09:48;17.90;87.90
70366;DHT22;57787;48.216;12.396;2023-07-30T00:12:15;17.90;87.80
70366;DHT22;57787;48.216;12.396;2023-07-30T00:14:42;17.90;87.80
70366;DHT22;57787;48.216;12.396;2023-07-30T00:17:11;18.00;87.80
70366;DHT22;57787;48.216;12.396;2023-07-30T00:19:38;18.00;87.90
70366;DHT22;57787;48.216;12.396;2023-07-30T00:22:06;18.00;87.60
70366;DHT22;57787;48.216;12.396;2023-07-30T00:24:33;18.00;87.70
70366;DHT22;57787;48.216;12.396;2023-07-30T00:27:01;18.00;87.70
70366;DHT22;57787;48.216;12.396;2023-07-30T00:29:30;18.00;87.60
70366;DHT22;57787;48.216;12.396;2023-07-30T00:31:57;18.00;87.50
70366;DHT22;57787;48.216;12.396;2023-07-30T00:34:24;18.00;87.50
70366;DHT22;57787;48.216;12.396;2023-07-30T00:36:53;18.00;87.30
70366;DHT22;57787;48.216;12.396;2023-07-30T00:39:20;18.10;87.30
70366;DHT22;57787;48.216;12.396;2023-07-30T00:41:48;18.10;87.00
70366;DHT22;57787;48.216;12.396;2023-07-30T00:44:15;18.10;86.90
70366;DHT22;57787;48.216;12.396;2023-07-30T00:46:41;18.10;86.80
70366;DHT22;57787;48.216;12.396;2023-07-30T00:49:09;18.20;86.50
70366;DHT22;57787;48.216;12.396;2023-07-30T00:51:37;18.20;86.10
70366;DHT22;57787;48.216;12.396;2023-07-30T00:54:05;18.30;86.10
70366;DHT22;57787;48.216;12.396;2023-07-30T00:56:32;18.20;86.50
70366;DHT22;57787;48.216;12.396;2023-07-30T00:58:59;18.30;86.70
70366;DHT22;57787;48.216;12.396;2023-07-30T01:01:27;18.20;86.80
70366;DHT22;57787;48.216;12.396;2023-07-30T01:03:54;18.20;87.00
70366;DHT22;57787;48.216;12.396;2023-07-30T01:06:21;18.20;87.20
70366;DHT22;57787;48.216;12.396;2023-07-30T01:08:49;18.10;87.50
70366;DHT22;57787;48.216;12.396;2023-07-30T01:11:16;18.10;87.40
70366;DHT22;57787;48.216;12.396;2023-07-30T01:13:44;18.10;87.70
70366;DHT22;57787;48.216;12.396;2023-07-30T01:16:16;18.00;87.90
70366;DHT22;57787;48.216;12.396;2023-07-30T01:18:43;18.00;87.90
70366;DHT22;57787;48.216;12.396;2023-07-30T01:21:10;18.00;87.80
70366;DHT22;57787;48.216;12.396;2023-07-30T01:23:37;17.90;87.90
70366;DHT22;57787;48.216;12.396;2023-07-30T01:26:19;17.90;87.80
70366;DHT22;57787;48.216;12.396;2023-07-30T01:28:51;17.90;87.50
70366;DHT22;57787;48.216;12.396;2023-07-30T01:31:20;17.90;87.00
70366;DHT22;57787;48.216;12.396;2023-07-30T01:33:50;18.00;86.70
70366;DHT22;57787;48.216;12.396;2023-07-30T01:36:18;18.00;86.60
70366;DHT22;57787;48.216;12.396;2023-07-30T01:38:46;18.00;86.60
70366;DHT22;57787;48.216;12.396;2023-07-30T01:41:13;18.00;86.70
70366;DHT22;57787;48.216;12.396;2023-07-30T01:43:40;18.10;86.20
70366;DHT22;57787;48.216;12.396;2023-07-30T01:46:08;18.10;86.40
70366;DHT22;57787;48.216;12.396;2023-07-30T01:48:35;18.10;86.40
70366;DHT22;57787;48.216;12.396;2023-07-30T01:51:02;18.20;86.30
70366;DHT22;57787;48.216;12.396;2023-07-30T01:53:29;18.20;86.40
70366;DHT22;57787;48.216;12.396;2023-07-30T01:55:56;18.10;86.60
70366;DHT22;57787;48.216;12.396;2023-07-30T01:58:23;18.20;86.70
70366;DHT22;57787;48.216;12.396;2023-07-30T02:00:52;18.20;86.60
70366;DHT22;57787;48.216;12.396;2023-07-30T02:03:19;18.20;86.90
70366;DHT22;57787;48.216;12.396;2023-07-30T02:05:47;18.20;87.10
70366;DHT22;57787;48.216;12.396;2023-07-30T02:08:14;18.20;87.10
70366;DHT22;57787;48.216;12.396;2023-07-30T02:10:42;18.20;87.40
70366;DHT22;57787;48.216;12.396;2023-07-30T02:13:09;18.20;87.40
70366;DHT22;57787;48.216;12.396;2023-07-30T02:15:40;18.10;87.40
70366;DHT22;57787;48.216;12.396;2023-07-30T02:18:08;18.10;87.40
70366;DHT22;57787;48.216;12.396;2023-07-30T02:20:38;18.10;87.50
70366;DHT22;57787;48.216;12.396;2023-07-30T02:23:04;18.00;87.60
70366;DHT22;57787;48.216;12.396;2023-07-30T02:25:31;17.90;87.80
70366;DHT22;57787;48.216;12.396;2023-07-30T02:28:03;17.90;87.80
70366;DHT22;57787;48.216;12.396;2023-07-30T02:30:32;17.80;87.90
70366;DHT22;57787;48.216;12.396;2023-07-30T02:33:01;17.70;88.10
70366;DHT22;57787;48.216;12.396;2023-07-30T02:35:29;17.70;88.50
70366;DHT22;57787;48.216;12.396;2023-07-30T02:37:56;17.60;88.80
70366;DHT22;57787;48.216;12.396;2023-07-30T02:40:23;17.60;89.10
70366;DHT22;57787;48.216;12.396;2023-07-30T02:42:51;17.60;89.20
70366;DHT22;57787;48.216;12.396;2023-07-30T02:45:22;17.70;89.10
70366;DHT22;57787;48.216;12.396;2023-07-30T02:47:49;17.70;88.90
70366;DHT22;57787;48.216;12.396;2023-07-30T02:50:15;17.80;88.50
70366;DHT22;57787;48.216;12.396;2023-07-30T02:52:46;17.80;88.20
70366;DHT22;57787;48.216;12.396;2023-07-30T02:55:14;17.90;87.90
70366;DHT22;57787;48.216;12.396;2023-07-30T02:57:42;17.90;87.90
70366;DHT22;57787;48.216;12.396;2023-07-30T03:00:09;17.90;87.80
70366;DHT22;57787;48.216;12.396;2023-07-30T03:02:40;17.90;87.70
70366;DHT22;57787;48.216;12.396;2023-07-30T03:05:08;17.90;87.60
70366;DHT22;57787;48.216;12.396;2023-07-30T03:07:37;17.90;87.80
70366;DHT22;57787;48.216;12.396;2023-07-30T03:10:04;17.90;87.60
70366;DHT22;57787;48.216;12.396;2023-07-30T03:12:32;18.00;87.70
70366;DHT22;57787;48.216;12.396;2023-07-30T03:14:59;18.00;87.90
70366;DHT22;57787;48.216;12.396;2023-07-30T03:17:26;18.00;87.50
70366;DHT22;57787;48.216;12.396;2023-07-30T03:19:53;18.00;87.60
70366;DHT22;57787;48.216;12.396;2023-07-30T03:22:20;18.00;87.80
70366;DHT22;57787;48.216;12.396;2023-07-30T03:24:48;18.00;88.10
70366;DHT22;57787;48.216;12.396;2023-07-30T03:27:15;18.00;88.10
70366;DHT22;57787;48.216;12.396;2023-07-30T03:32:26;18.00;88.70
70366;DHT22;57787;48.216;12.396;2023-07-30T03:34:53;17.90;88.80
70366;DHT22;57787;48.216;12.396;2023-07-30T03:37:20;17.90;89.20
70366;DHT22;57787;48.216;12.396;2023-07-30T03:39:47;17.90;89.20
70366;DHT22;57787;48.216;12.396;2023-07-30T03:42:13;17.90;89.30
70366;DHT22;57787;48.216;12.396;2023-07-30T03:44:43;17.90;89.60
70366;DHT22;57787;48.216;12.396;2023-07-30T03:47:09;17.80;89.50
70366;DHT22;57787;48.216;12.396;2023-07-30T03:49:36;17.80;89.80
70366;DHT22;57787;48.216;12.396;2023-07-30T03:52:04;17.80;89.80
70366;DHT22;57787;48.216;12.396;2023-07-30T03:54:31;17.70;89.70
70366;DHT22;57787;48.216;12.396;2023-07-30T03:57:02;17.70;89.70
70366;DHT22;57787;48.216;12.396;2023-07-30T03:59:29;17.60;89.90
70366;DHT22;57787;48.216;12.396;2023-07-30T04:02:01;17.60;90.00
70366;DHT22;57787;48.216;12.396;2023-07-30T04:04:29;17.60;90.20
70366;DHT22;57787;48.216;12.396;2023-07-30T04:06:58;17.60;90.30
70366;DHT22;57787;48.216;12.396;2023-07-30T04:09:25;17.50;90.20
70366;DHT22;57787;48.216;12.396;2023-07-30T04:11:52;17.50;90.30
70366;DHT22;57787;48.216;12.396;2023-07-30T04:14:19;17.50;90.40
70366;DHT22;57787;48.216;12.396;2023-07-30T04:19:23;17.50;90.40
70366;DHT22;57787;48.216;12.396;2023-07-30T04:21:51;17.50;90.40
70366;DHT22;57787;48.216;12.396;2023-07-30T04:24:18;17.50;90.40
70366;DHT22;57787;48.216;12.396;2023-07-30T04:26:49;17.50;90.30
70366;DHT22;57787;48.216;12.396;2023-07-30T04:29:16;17.60;90.30
70366;DHT22;57787;48.216;12.396;2023-07-30T04:31:43;17.60;90.30
70366;DHT22;57787;48.216;12.396;2023-07-30T04:34:13;17.70;90.40
70366;DHT22;57787;48.216;12.396;2023-07-30T04:36:40;17.80;90.10
70366;DHT22;57787;48.216;12.396;2023-07-30T04:39:07;17.80;89.70
70366;DHT22;57787;48.216;12.396;2023-07-30T04:41:42;17.80;89.80
70366;DHT22;57787;48.216;12.396;2023-07-30T04:44:09;17.80;89.60
70366;DHT22;57787;48.216;12.396;2023-07-30T04:46:36;17.80;89.40
70366;DHT22;57787;48.216;12.396;2023-07-30T04:49:03;17.80;89.40
70366;DHT22;57787;48.216;12.396;2023-07-30T04:51:32;17.80;89.20
70366;DHT22;57787;48.216;12.396;2023-07-30T04:53:59;17.80;89.10
70366;DHT22;57787;48.216;12.396;2023-07-30T04:56:31;17.80;89.00
70366;DHT22;57787;48.216;12.396;2023-07-30T04:58:58;17.90;89.10
70366;DHT22;57787;48.216;12.396;2023-07-30T05:01:27;18.00;89.10
70366;DHT22;57787;48.216;12.396;2023-07-30T05:03:54;18.30;89.00
70366;DHT22;57787;48.216;12.396;2023-07-30T05:09:17;19.20;86.90
70366;DHT22;57787;48.216;12.396;2023-07-30T05:11:46;19.40;85.60
70366;DHT22;57787;48.216;12.396;2023-07-30T05:14:13;19.60;85.30
70366;DHT22;57787;48.216;12.396;2023-07-30T05:16:40;19.60;84.80
70366;DHT22;57787;48.216;12.396;2023-07-30T05:19:11;19.80;84.70
70366;DHT22;57787;48.216;12.396;2023-07-30T05:21:38;20.10;83.90
70366;DHT22;57787;48.216;12.396;2023-07-30T05:24:06;21.60;79.50
70366;DHT22;57787;48.216;12.396;2023-07-30T05:26:35;22.30;77.60
70366;DHT22;57787;48.216;12.396;2023-07-30T05:29:05;22.50;76.50
70366;DHT22;57787;48.216;12.396;2023-07-30T05:31:34;22.60;76.00
70366;DHT22;57787;48.216;12.396;2023-07-30T05:34:01;22.50;76.50
70366;DHT22;57787;48.216;12.396;2023-07-30T05:36:30;22.20;77.10
70366;DHT22;57787;48.216;12.396;2023-07-30T05:38:57;21.90;78.20
70366;DHT22;57787;48.216;12.396;2023-07-30T05:41:24;21.80;78.30
70366;DHT22;57787;48.216;12.396;2023-07-30T05:43:51;21.80;78.60
70366;DHT22;57787;48.216;12.396;2023-07-30T05:46:17;21.80;78.80
70366;DHT22;57787;48.216;12.396;2023-07-30T05:48:44;21.90;78.30
70366;DHT22;57787;48.216;12.396;2023-07-30T05:51:11;21.80;78.60
70366;DHT22;57787;48.216;12.396;2023-07-30T05:53:39;21.80;78.50
70366;DHT22;57787;48.216;12.396;2023-07-30T05:56:06;23.80;75.30
70366;DHT22;57787;48.216;12.396;2023-07-30T05:58:36;27.40;65.80
70366;DHT22;57787;48.216;12.396;2023-07-30T06:01:04;29.30;56.50
70366;DHT22;57787;48.216;12.396;2023-07-30T06:03:32;28.50;56.90
70366;DHT22;57787;48.216;12.396;2023-07-30T06:06:01;26.80;60.10
70366;DHT22;57787;48.216;12.396;2023-07-30T06:08:32;26.80;62.80
70366;DHT22;57787;48.216;12.396;2023-07-30T06:11:05;29.70;55.70
70366;DHT22;57787;48.216;12.396;2023-07-30T06:13:33;31.60;48.90
70366;DHT22;57787;48.216;12.396;2023-07-30T06:16:03;31.40;48.50
70366;DHT22;57787;48.216;12.396;2023-07-30T06:18:29;30.50;51.50
70366;DHT22;57787;48.216;12.396;2023-07-30T06:20:56;29.40;53.40
70366;DHT22;57787;48.216;12.396;2023-07-30T06:23:25;28.30;57.10
70366;DHT22;57787;48.216;12.396;2023-07-30T06:25:52;27.40;58.40
70366;DHT22;57787;48.216;12.396;2023-07-30T06:28:19;26.70;60.90
70366;DHT22;57787;48.216;12.396;2023-07-30T06:30:47;26.20;62.70
70366;DHT22;57787;48.216;12.396;2023-07-30T06:33:19;25.90;63.90
70366;DHT22;57787;48.216;12.396;2023-07-30T06:35:47;25.60;64.60
70366;DHT22;57787;48.216;12.396;2023-07-30T06:38:16;25.30;66.40
70366;DHT22;57787;48.216;12.396;2023-07-30T06:40:43;25.30;68.60
70366;DHT22;57787;48.216;12.396;2023-07-30T06:43:11;25.30;69.90
70366;DHT22;57787;48.216;12.396;2023-07-30T06:45:40;25.10;69.50
70366;DHT22;57787;48.216;12.396;2023-07-30T06:48:07;25.10;68.20
70366;DHT22;57787;48.216;12.396;2023-07-30T06:50:34;25.00;64.90
70366;DHT22;57787;48.216;12.396;2023-07-30T06:53:00;25.00;68.50
70366;DHT22;57787;48.216;12.396;2023-07-30T06:55:27;24.90;67.60
70366;DHT22;57787;48.216;12.396;2023-07-30T06:57:54;25.00;68.90
70366;DHT22;57787;48.216;12.396;2023-07-30T07:00:21;25.10;67.50
70366;DHT22;57787;48.216;12.396;2023-07-30T07:02:48;25.00;66.40
70366;DHT22;57787;48.216;12.396;2023-07-30T07:05:17;25.00;67.60
70366;DHT22;57787;48.216;12.396;2023-07-30T07:07:44;25.20;67.30
70366;DHT22;57787;48.216;12.396;2023-07-30T07:10:13;25.20;66.00
70366;DHT22;57787;48.216;12.396;2023-07-30T07:12:42;25.30;67.40
70366;DHT22;57787;48.216;12.396;2023-07-30T07:15:09;25.40;67.30
70366;DHT22;57787;48.216;12.396;2023-07-30T07:17:36;25.60;66.90
70366;DHT22;57787;48.216;12.396;2023-07-30T07:20:05;25.60;68.00
70366;DHT22;57787;48.216;12.396;2023-07-30T07:22:34;25.70;67.10
70366;DHT22;57787;48.216;12.396;2023-07-30T07:25:01;25.70;63.60
70366;DHT22;57787;48.216;12.396;2023-07-30T07:27:28;25.80;67.10
70366;DHT22;57787;48.216;12.396;2023-07-30T07:29:58;25.90;62.40
70366;DHT22;57787;48.216;12.396;2023-07-30T07:32:27;26.00;64.70
70366;DHT22;57787;48.216;12.396;2023-07-30T07:34:54;26.30;63.90
70366;DHT22;57787;48.216;12.396;2023-07-30T07:37:23;26.20;63.00
70366;DHT22;57787;48.216;12.396;2023-07-30T07:39:50;26.20;62.80
70366;DHT22;57787;48.216;12.396;2023-07-30T07:42:17;26.10;62.50
70366;DHT22;57787;48.216;12.396;2023-07-30T07:44:45;26.30;64.50
70366;DHT22;57787;48.216;12.396;2023-07-30T07:47:13;26.60;62.20
70366;DHT22;57787;48.216;12.396;2023-07-30T07:49:40;26.80;61.20
70366;DHT22;57787;48.216;12.396;2023-07-30T07:52:07;26.80;61.60
70366;DHT22;57787;48.216;12.396;2023-07-30T07:54:35;26.80;57.90
70366;DHT22;57787;48.216;12.396;2023-07-30T07:57:03;26.60;60.00
70366;DHT22;57787;48.216;12.396;2023-07-30T07:59:30;26.40;58.30
70366;DHT22;57787;48.216;12.396;2023-07-30T08:01:57;26.10;58.40
70366;DHT22;57787;48.216;12.396;2023-07-30T08:04:25;25.80;61.30
70366;DHT22;57787;48.216;12.396;2023-07-30T08:06:53;25.70;61.60
70366;DHT22;57787;48.216;12.396;2023-07-30T08:09:26;26.00;62.70
70366;DHT22;57787;48.216;12.396;2023-07-30T08:11:54;26.30;60.90
70366;DHT22;57787;48.216;12.396;2023-07-30T08:14:26;26.70;62.50
70366;DHT22;57787;48.216;12.396;2023-07-30T08:16:53;27.10;61.60
70366;DHT22;57787;48.216;12.396;2023-07-30T08:19:20;27.60;58.00
70366;DHT22;57787;48.216;12.396;2023-07-30T08:21:48;28.00;56.80
70366;DHT22;57787;48.216;12.396;2023-07-30T08:24:15;28.10;61.00
70366;DHT22;57787;48.216;12.396;2023-07-30T08:26:42;28.40;56.60
70366;DHT22;57787;48.216;12.396;2023-07-30T08:29:10;28.80;54.80
70366;DHT22;57787;48.216;12.396;2023-07-30T08:31:44;29.30;53.00
70366;DHT22;57787;48.216;12.396;2023-07-30T08:34:11;29.40;52.10
70366;DHT22;57787;48.216;12.396;2023-07-30T08:36:38;28.80;50.40
70366;DHT22;57787;48.216;12.396;2023-07-30T08:39:05;27.80;51.00
70366;DHT22;57787;48.216;12.396;2023-07-30T08:41:32;27.40;54.20
70366;DHT22;57787;48.216;12.396;2023-07-30T08:44:00;27.70;57.00
70366;DHT22;57787;48.216;12.396;2023-07-30T08:46:28;28.00;54.80
70366;DHT22;57787;48.216;12.396;2023-07-30T08:48:55;28.10;54.20
70366;DHT22;57787;48.216;12.396;2023-07-30T08:51:23;28.10;51.90
70366;DHT22;57787;48.216;12.396;2023-07-30T08:53:55;27.80;54.20
70366;DHT22;57787;48.216;12.396;2023-07-30T08:56:24;27.80;54.00
70366;DHT22;57787;48.216;12.396;2023-07-30T08:58:51;27.80;54.00
70366;DHT22;57787;48.216;12.396;2023-07-30T09:01:19;27.90;52.40
70366;DHT22;57787;48.216;12.396;2023-07-30T09:03:52;27.90;54.50
70366;DHT22;57787;48.216;12.396;2023-07-30T09:06:19;28.10;55.60
70366;DHT22;57787;48.216;12.396;2023-07-30T09:08:47;28.40;54.20
70366;DHT22;57787;48.216;12.396;2023-07-30T09:11:28;29.20;53.60
70366;DHT22;57787;48.216;12.396;2023-07-30T09:13:57;29.20;50.40
70366;DHT22;57787;48.216;12.396;2023-07-30T09:16:26;29.50;52.00
70366;DHT22;57787;48.216;12.396;2023-07-30T09:18:56;30.00;50.50
70366;DHT22;57787;48.216;12.396;2023-07-30T09:21:32;30.00;49.40
70366;DHT22;57787;48.216;12.396;2023-07-30T09:24:02;29.80;47.50
70366;DHT22;57787;48.216;12.396;2023-07-30T09:26:44;29.60;48.90
70366;DHT22;57787;48.216;12.396;2023-07-30T09:29:11;29.70;47.80
70366;DHT22;57787;48.216;12.396;2023-07-30T09:31:43;29.70;47.90
70366;DHT22;57787;48.216;12.396;2023-07-30T09:34:14;29.70;49.10
70366;DHT22;57787;48.216;12.396;2023-07-30T09:36:41;29.20;50.00
70366;DHT22;57787;48.216;12.396;2023-07-30T09:39:42;28.60;48.30
70366;DHT22;57787;48.216;12.396;2023-07-30T09:42:02;27.80;53.00
70366;DHT22;57787;48.216;12.396;2023-07-30T09:44:31;27.10;56.10
70366;DHT22;57787;48.216;12.396;2023-07-30T09:47:00;26.80;53.50
70366;DHT22;57787;48.216;12.396;2023-07-30T09:49:31;27.10;58.00
70366;DHT22;57787;48.216;12.396;2023-07-30T09:51:58;27.50;52.10
70366;DHT22;57787;48.216;12.396;2023-07-30T09:54:25;27.60;55.30
70366;DHT22;57787;48.216;12.396;2023-07-30T09:56:52;27.50;55.80
70366;DHT22;57787;48.216;12.396;2023-07-30T09:59:18;27.30;56.00
70366;DHT22;57787;48.216;12.396;2023-07-30T10:01:46;26.80;52.70
70366;DHT22;57787;48.216;12.396;2023-07-30T10:04:18;26.90;56.70
70366;DHT22;57787;48.216;12.396;2023-07-30T10:09:15;28.20;53.90
70366;DHT22;57787;48.216;12.396;2023-07-30T10:11:43;29.00;51.00
70366;DHT22;57787;48.216;12.396;2023-07-30T10:14:12;29.50;47.80
70366;DHT22;57787;48.216;12.396;2023-07-30T10:16:39;30.10;46.20
70366;DHT22;57787;48.216;12.396;2023-07-30T10:19:06;30.40;45.60
70366;DHT22;57787;48.216;12.396;2023-07-30T10:21:34;30.30;41.60
70366;DHT22;57787;48.216;12.396;2023-07-30T10:24:02;30.00;45.50
70366;DHT22;57787;48.216;12.396;2023-07-30T10:26:33;29.80;44.40
70366;DHT22;57787;48.216;12.396;2023-07-30T10:29:10;29.70;45.90
70366;DHT22;57787;48.216;12.396;2023-07-30T10:31:40;29.70;51.80
70366;DHT22;57787;48.216;12.396;2023-07-30T10:34:08;30.00;47.30
70366;DHT22;57787;48.216;12.396;2023-07-30T10:36:49;30.30;47.10
70366;DHT22;57787;48.216;12.396;2023-07-30T10:39:19;30.30;47.60
70366;DHT22;57787;48.216;12.396;2023-07-30T10:41:50;30.00;47.10
70366;DHT22;57787;48.216;12.396;2023-07-30T10:44:33;29.60;46.70
70366;DHT22;57787;48.216;12.396;2023-07-30T10:47:01;29.40;45.00
70366;DHT22;57787;48.216;12.396;2023-07-30T10:49:29;29.40;47.60
70366;DHT22;57787;48.216;12.396;2023-07-30T10:51:56;29.40;46.20
70366;DHT22;57787;48.216;12.396;2023-07-30T10:54:26;29.40;48.20
70366;DHT22;57787;48.216;12.396;2023-07-30T10:56:59;29.60;47.60
70366;DHT22;57787;48.216;12.396;2023-07-30T10:59:25;29.40;48.10
70366;DHT22;57787;48.216;12.396;2023-07-30T11:01:52;29.40;45.10
70366;DHT22;57787;48.216;12.396;2023-07-30T11:04:20;29.70;45.40
70366;DHT22;57787;48.216;12.396;2023-07-30T11:06:48;29.90;47.70
70366;DHT22;57787;48.216;12.396;2023-07-30T11:09:19;30.00;45.50
70366;DHT22;57787;48.216;12.396;2023-07-30T11:11:47;30.50;46.20
70366;DHT22;57787;48.216;12.396;2023-07-30T11:14:17;31.30;43.70
70366;DHT22;57787;48.216;12.396;2023-07-30T11:16:50;31.70;40.50
70366;DHT22;57787;48.216;12.396;2023-07-30T11:19:17;32.20;40.30
70366;DHT22;57787;48.216;12.396;2023-07-30T11:21:48;32.40;40.60
70366;DHT22;57787;48.216;12.396;2023-07-30T11:24:20;32.50;40.90
70366;DHT22;57787;48.216;12.396;2023-07-30T11:26:56;32.30;38.00
70366;DHT22;57787;48.216;12.396;2023-07-30T11:29:25;31.90;40.40
70366;DHT22;57787;48.216;12.396;2023-07-30T11:31:52;31.40;42.70
70366;DHT22;57787;48.216;12.396;2023-07-30T11:34:22;31.10;42.20
70366;DHT22;57787;48.216;12.396;2023-07-30T11:36:49;30.50;41.50
70366;DHT22;57787;48.216;12.396;2023-07-30T11:39:15;30.10;43.10
70366;DHT22;57787;48.216;12.396;2023-07-30T11:41:42;29.70;42.30
70366;DHT22;57787;48.216;12.396;2023-07-30T11:44:09;29.30;44.90
70366;DHT22;57787;48.216;12.396;2023-07-30T11:46:55;29.30;46.80
70366;DHT22;57787;48.216;12.396;2023-07-30T11:49:22;29.20;44.40
70366;DHT22;57787;48.216;12.396;2023-07-30T11:51:49;28.90;46.10
70366;DHT22;57787;48.216;12.396;2023-07-30T11:54:20;28.70;47.90
70366;DHT22;57787;48.216;12.396;2023-07-30T11:56:47;28.30;44.60
70366;DHT22;57787;48.216;12.396;2023-07-30T11:59:14;27.80;48.30
70366;DHT22;57787;48.216;12.396;2023-07-30T12:01:41;27.80;49.30
70366;DHT22;57787;48.216;12.396;2023-07-30T12:04:08;27.70;51.80
70366;DHT22;57787;48.216;12.396;2023-07-30T12:06:40;27.80;47.90
70366;DHT22;57787;48.216;12.396;2023-07-30T12:11:48;28.80;45.80
70366;DHT22;57787;48.216;12.396;2023-07-30T12:14:16;29.20;44.80
70366;DHT22;57787;48.216;12.396;2023-07-30T12:16:43;29.40;44.70
70366;DHT22;57787;48.216;12.396;2023-07-30T12:19:10;29.50;43.50
70366;DHT22;57787;48.216;12.396;2023-07-30T12:21:36;29.80;41.70
70366;DHT22;57787;48.216;12.396;2023-07-30T12:24:05;29.80;43.40
70366;DHT22;57787;48.216;12.396;2023-07-30T12:26:32;29.50;40.80
70366;DHT22;57787;48.216;12.396;2023-07-30T12:28:59;28.90;41.00
70366;DHT22;57787;48.216;12.396;2023-07-30T12:31:25;28.30;43.30
70366;DHT22;57787;48.216;12.396;2023-07-30T12:33:52;28.00;46.70
70366;DHT22;57787;48.216;12.396;2023-07-30T12:36:19;28.10;48.80
70366;DHT22;57787;48.216;12.396;2023-07-30T12:38:46;28.30;48.00
70366;DHT22;57787;48.216;12.396;2023-07-30T12:41:14;28.80;45.20
70366;DHT22;57787;48.216;12.396;2023-07-30T12:43:41;29.20;47.70
70366;DHT22;57787;48.216;12.396;2023-07-30T12:46:08;29.50;46.00
70366;DHT22;57787;48.216;12.396;2023-07-30T12:48:35;29.10;44.20
70366;DHT22;57787;48.216;12.396;2023-07-30T12:51:01;28.80;46.40
70366;DHT22;57787;48.216;12.396;2023-07-30T12:53:28;28.10;46.40
70366;DHT22;57787;48.216;12.396;2023-07-30T12:55:55;27.70;48.70
70366;DHT22;57787;48.216;12.396;2023-07-30T12:58:22;27.30;48.00
70366;DHT22;57787;48.216;12.396;2023-07-30T13:00:49;26.90;48.00
70366;DHT22;57787;48.216;12.396;2023-07-30T13:03:17;26.70;49.70
70366;DHT22;57787;48.216;12.396;2023-07-30T13:05:44;26.50;51.70
70366;DHT22;57787;48.216;12.396;2023-07-30T13:08:10;26.80;51.70
70366;DHT22;57787;48.216;12.396;2023-07-30T13:10:37;27.10;50.00
70366;DHT22;57787;48.216;12.396;2023-07-30T13:13:04;27.30;48.40
70366;DHT22;57787;48.216;12.396;2023-07-30T13:15:31;27.60;48.10
70366;DHT22;57787;48.216;12.396;2023-07-30T13:17:57;27.80;48.10
70366;DHT22;57787;48.216;12.396;2023-07-30T13:20:24;27.60;44.60
70366;DHT22;57787;48.216;12.396;2023-07-30T13:22:51;27.30;46.20
70366;DHT22;57787;48.216;12.396;2023-07-30T13:25:20;27.30;46.90
70366;DHT22;57787;48.216;12.396;2023-07-30T13:27:47;27.40;47.10
70366;DHT22;57787;48.216;12.396;2023-07-30T13:30:13;27.50;46.50
70366;DHT22;57787;48.216;12.396;2023-07-30T13:32:40;27.50;45.70
70366;DHT22;57787;48.216;12.396;2023-07-30T13:35:08;27.50;46.40
70366;DHT22;57787;48.216;12.396;2023-07-30T13:37:34;27.60;47.00
70366;DHT22;57787;48.216;12.396;2023-07-30T13:40:01;27.60;47.00
70366;DHT22;57787;48.216;12.396;2023-07-30T13:42:28;27.30;46.90
70366;DHT22;57787;48.216;12.396;2023-07-30T13:44:55;27.00;47.60
70366;DHT22;57787;48.216;12.396;2023-07-30T13:47:22;27.10;49.30
70366;DHT22;57787;48.216;12.396;2023-07-30T13:49:50;27.20;49.90
70366;DHT22;57787;48.216;12.396;2023-07-30T13:52:17;27.30;47.70
70366;DHT22;57787;48.216;12.396;2023-07-30T13:54:44;27.20;48.90
70366;DHT22;57787;48.216;12.396;2023-07-30T13:57:11;27.20;47.50
70366;DHT22;57787;48.216;12.396;2023-07-30T13:59:38;27.20;47.80
70366;DHT22;57787;48.216;12.396;2023-07-30T14:02:07;26.90;47.90
70366;DHT22;57787;48.216;12.396;2023-07-30T14:04:34;26.80;49.40
70366;DHT22;57787;48.216;12.396;2023-07-30T14:07:01;26.70;50.10
70366;DHT22;57787;48.216;12.396;2023-07-30T14:09:28;26.80;50.20
70366;DHT22;57787;48.216;12.396;2023-07-30T14:12:00;26.80;49.80
70366;DHT22;57787;48.216;12.396;2023-07-30T14:14:30;26.80;51.60
70366;DHT22;57787;48.216;12.396;2023-07-30T14:16:57;26.70;51.40
70366;DHT22;57787;48.216;12.396;2023-07-30T14:19:24;26.60;51.40
70366;DHT22;57787;48.216;12.396;2023-07-30T14:21:51;26.50;51.10
70366;DHT22;57787;48.216;12.396;2023-07-30T14:24:19;26.40;51.80
70366;DHT22;57787;48.216;12.396;2023-07-30T14:26:46;26.60;52.20
70366;DHT22;57787;48.216;12.396;2023-07-30T14:29:13;26.70;52.00
70366;DHT22;57787;48.216;12.396;2023-07-30T14:31:41;26.90;50.80
70366;DHT22;57787;48.216;12.396;2023-07-30T14:34:09;27.30;51.60
70366;DHT22;57787;48.216;12.396;2023-07-30T14:36:44;27.30;50.20
70366;DHT22;57787;48.216;12.396;2023-07-30T14:39:10;26.80;51.20
70366;DHT22;57787;48.216;12.396;2023-07-30T14:41:40;26.40;51.30
70366;DHT22;57787;48.216;12.396;2023-07-30T14:44:08;25.90;52.90
70366;DHT22;57787;48.216;12.396;2023-07-30T14:46:35;25.50;52.80
70366;DHT22;57787;48.216;12.396;2023-07-30T14:49:02;25.20;54.40
70366;DHT22;57787;48.216;12.396;2023-07-30T14:51:29;24.90;53.30
70366;DHT22;57787;48.216;12.396;2023-07-30T14:53:56;24.90;51.30
70366;DHT22;57787;48.216;12.396;2023-07-30T14:56:23;25.30;51.90
70366;DHT22;57787;48.216;12.396;2023-07-30T14:58:50;25.40;50.60
70366;DHT22;57787;48.216;12.396;2023-07-30T15:01:18;25.50;49.00
70366;DHT22;57787;48.216;12.396;2023-07-30T15:03:45;25.70;48.30
70366;DHT22;57787;48.216;12.396;2023-07-30T15:06:12;25.40;50.10
70366;DHT22;57787;48.216;12.396;2023-07-30T15:08:40;25.70;50.80
70366;DHT22;57787;48.216;12.396;2023-07-30T15:11:10;26.00;49.70
70366;DHT22;57787;48.216;12.396;2023-07-30T15:13:38;26.20;49.10
70366;DHT22;57787;48.216;12.396;2023-07-30T15:16:05;26.20;50.20
70366;DHT22;57787;48.216;12.396;2023-07-30T15:18:32;26.10;50.20
70366;DHT22;57787;48.216;12.396;2023-07-30T15:21:00;26.10;48.80
70366;DHT22;57787;48.216;12.396;2023-07-30T15:23:30;25.80;48.80
70366;DHT22;57787;48.216;12.396;2023-07-30T15:25:57;25.60;50.70
70366;DHT22;57787;48.216;12.396;2023-07-30T15:30:56;25.20;49.40
70366;DHT22;57787;48.216;12.396;2023-07-30T15:33:26;24.90;51.60
70366;DHT22;57787;48.216;12.396;2023-07-30T15:36:10;25.00;51.90
70366;DHT22;57787;48.216;12.396;2023-07-30T15:38:37;24.90;53.20